sensor_id;sensor_type;location;lat;lon;timestamp;P1;durP1;ratioP1;P2;durP2;ratioP2
23404;SDS011;11875;49.356;2.718;2023-01-24T00:02:06;22.00;;;13.33;;
23404;SDS011;11875;49.356;2.718;2023-01-24T00:04:32;22.20;;;12.63;;
23404;SDS011;11875;49.356;2.718;2023-01-24T00:06:58;27.87;;;14.33;;
23404;SDS011;11875;49.356;2.718;2023-01-24T00:09:23;22.67;;;14.07;;
23404;SDS011;11875;49.356;2.718;2023-01-24T00:11:49;23.23;;;13.20;;
23404;SDS011;11875;49.356;2.718;2023-01-24T00:14:15;22.37;;;12.50;;
23404;SDS011;11875;49.356;2.718;2023-01-24T00:16:40;20.07;;;12.27;;
23404;SDS011;11875;49.356;2.718;2023-01-24T00:19:06;22.80;;;13.83;;
23404;SDS011;11875;49.356;2.718;2023-01-24T00:21:32;22.10;;;12.87;;
23404;SDS011;11875;49.356;2.718;2023-01-24T00:23:57;21.67;;;12.50;;
23404;SDS011;11875;49.356;2.718;2023-01-24T00:26:23;22.93;;;13.20;;
23404;SDS011;11875;49.356;2.718;2023-01-24T00:28:49;24.00;;;14.10;;
23404;SDS011;11875;49.356;2.718;2023-01-24T00:31:15;19.13;;;11.90;;
23404;SDS011;11875;49.356;2.718;2023-01-24T00:33:42;22.87;;;13.70;;
23404;SDS011;11875;49.356;2.718;2023-01-24T00:36:08;21.47;;;13.40;;
23404;SDS011;11875;49.356;2.718;2023-01-24T00:38:34;25.93;;;15.30;;
23404;SDS011;11875;49.356;2.718;2023-01-24T00:41:00;34.67;;;18.43;;
23404;SDS011;11875;49.356;2.718;2023-01-24T00:43:25;32.97;;;18.07;;
23404;SDS011;11875;49.356;2.718;2023-01-24T00:45:51;27.40;;;14.97;;
23404;SDS011;11875;49.356;2.718;2023-01-24T00:48:17;21.90;;;12.50;;
23404;SDS011;11875;49.356;2.718;2023-01-24T00:50:43;23.53;;;12.93;;
23404;SDS011;11875;49.356;2.718;2023-01-24T00:53:08;22.47;;;13.50;;
23404;SDS011;11875;49.356;2.718;2023-01-24T00:55:39;25.77;;;14.00;;
23404;SDS011;11875;49.356;2.718;2023-01-24T00:58:06;23.13;;;13.57;;
23404;SDS011;11875;49.356;2.718;2023-01-24T01:00:32;24.10;;;13.83;;
23404;SDS011;11875;49.356;2.718;2023-01-24T01:02:59;22.87;;;13.83;;
23404;SDS011;11875;49.356;2.718;2023-01-24T01:05:25;22.77;;;13.40;;
23404;SDS011;11875;49.356;2.718;2023-01-24T01:07:50;22.83;;;13.13;;
23404;SDS011;11875;49.356;2.718;2023-01-24T01:10:16;22.17;;;13.10;;
23404;SDS011;11875;49.356;2.718;2023-01-24T01:12:42;21.33;;;12.93;;
23404;SDS011;11875;49.356;2.718;2023-01-24T01:15:08;23.23;;;13.53;;
23404;SDS011;11875;49.356;2.718;2023-01-24T01:17:34;18.80;;;11.77;;
23404;SDS011;11875;49.356;2.718;2023-01-24T01:19:59;21.07;;;12.27;;
23404;SDS011;11875;49.356;2.718;2023-01-24T01:22:25;21.90;;;12.10;;
23404;SDS011;11875;49.356;2.718;2023-01-24T01:24:51;22.27;;;12.73;;
23404;SDS011;11875;49.356;2.718;2023-01-24T01:27:16;21.40;;;11.70;;
23404;SDS011;11875;49.356;2.718;2023-01-24T01:29:42;20.60;;;12.57;;
23404;SDS011;11875;49.356;2.718;2023-01-24T01:32:08;22.60;;;13.00;;
23404;SDS011;11875;49.356;2.718;2023-01-24T01:34:33;22.63;;;13.30;;
23404;SDS011;11875;49.356;2.718;2023-01-24T01:36:59;20.63;;;12.03;;
23404;SDS011;11875;49.356;2.718;2023-01-24T01:39:24;21.30;;;12.47;;
23404;SDS011;11875;49.356;2.718;2023-01-24T01:41:50;22.97;;;13.37;;
23404;SDS011;11875;49.356;2.718;2023-01-24T01:44:24;20.37;;;11.87;;
23404;SDS011;11875;49.356;2.718;2023-01-24T01:47:15;18.87;;;11.90;;
23404;SDS011;11875;49.356;2.718;2023-01-24T01:52:54;21.70;;;12.47;;
23404;SDS011;11875;49.356;2.718;2023-01-24T01:55:20;23.37;;;13.73;;
23404;SDS011;11875;49.356;2.718;2023-01-24T01:57:49;20.03;;;11.63;;
23404;SDS011;11875;49.356;2.718;2023-01-24T02:00:18;20.17;;;11.83;;
23404;SDS011;11875;49.356;2.718;2023-01-24T02:02:48;19.37;;;11.53;;
23404;SDS011;11875;49.356;2.718;2023-01-24T02:05:20;20.10;;;11.90;;
23404;SDS011;11875;49.356;2.718;2023-01-24T02:08:02;19.13;;;11.90;;
23404;SDS011;11875;49.356;2.718;2023-01-24T02:10:31;21.17;;;12.23;;
23404;SDS011;11875;49.356;2.718;2023-01-24T02:13:17;21.60;;;12.03;;
23404;SDS011;11875;49.356;2.718;2023-01-24T02:15:43;23.00;;;12.23;;
23404;SDS011;11875;49.356;2.718;2023-01-24T02:18:29;22.43;;;12.93;;
23404;SDS011;11875;49.356;2.718;2023-01-24T02:20:56;19.23;;;11.07;;
23404;SDS011;11875;49.356;2.718;2023-01-24T02:23:31;24.50;;;13.87;;
23404;SDS011;11875;49.356;2.718;2023-01-24T02:26:20;19.90;;;12.20;;
23404;SDS011;11875;49.356;2.718;2023-01-24T02:28:58;24.93;;;13.17;;
23404;SDS011;11875;49.356;2.718;2023-01-24T02:34:17;25.77;;;13.07;;
23404;SDS011;11875;49.356;2.718;2023-01-24T02:36:43;24.47;;;13.37;;
23404;SDS011;11875;49.356;2.718;2023-01-24T02:39:10;21.80;;;12.90;;
23404;SDS011;11875;49.356;2.718;2023-01-24T02:41:44;20.03;;;13.17;;
23404;SDS011;11875;49.356;2.718;2023-01-24T02:44:17;25.43;;;14.57;;
23404;SDS011;11875;49.356;2.718;2023-01-24T02:46:46;24.07;;;13.90;;
23404;SDS011;11875;49.356;2.718;2023-01-24T02:49:12;23.17;;;12.83;;
23404;SDS011;11875;49.356;2.718;2023-01-24T02:51:38;23.83;;;14.37;;
23404;SDS011;11875;49.356;2.718;2023-01-24T02:54:22;25.23;;;13.33;;
23404;SDS011;11875;49.356;2.718;2023-01-24T02:56:48;26.23;;;14.80;;
23404;SDS011;11875;49.356;2.718;2023-01-24T02:59:32;23.97;;;13.83;;
23404;SDS011;11875;49.356;2.718;2023-01-24T03:01:57;26.40;;;14.27;;
23404;SDS011;11875;49.356;2.718;2023-01-24T03:04:23;23.60;;;14.67;;
23404;SDS011;11875;49.356;2.718;2023-01-24T03:06:49;24.90;;;15.10;;
23404;SDS011;11875;49.356;2.718;2023-01-24T03:09:15;26.23;;;14.70;;
23404;SDS011;11875;49.356;2.718;2023-01-24T03:11:47;24.17;;;15.03;;
23404;SDS011;11875;49.356;2.718;2023-01-24T03:14:14;25.43;;;14.37;;
23404;SDS011;11875;49.356;2.718;2023-01-24T03:16:59;22.40;;;13.90;;
23404;SDS011;11875;49.356;2.718;2023-01-24T03:19:43;22.40;;;13.60;;
23404;SDS011;11875;49.356;2.718;2023-01-24T03:22:27;25.63;;;15.70;;
23404;SDS011;11875;49.356;2.718;2023-01-24T03:25:12;26.10;;;15.23;;
23404;SDS011;11875;49.356;2.718;2023-01-24T03:28:01;24.40;;;14.40;;
23404;SDS011;11875;49.356;2.718;2023-01-24T03:30:47;27.93;;;15.40;;
23404;SDS011;11875;49.356;2.718;2023-01-24T03:33:31;25.30;;;15.13;;
23404;SDS011;11875;49.356;2.718;2023-01-24T03:36:15;26.90;;;15.30;;
23404;SDS011;11875;49.356;2.718;2023-01-24T03:38:44;25.23;;;14.53;;
23404;SDS011;11875;49.356;2.718;2023-01-24T03:41:31;25.43;;;15.00;;
23404;SDS011;11875;49.356;2.718;2023-01-24T03:43:57;28.57;;;15.93;;
23404;SDS011;11875;49.356;2.718;2023-01-24T03:46:23;25.90;;;15.23;;
23404;SDS011;11875;49.356;2.718;2023-01-24T03:48:48;24.40;;;15.13;;
23404;SDS011;11875;49.356;2.718;2023-01-24T03:51:14;26.90;;;14.70;;
23404;SDS011;11875;49.356;2.718;2023-01-24T03:53:58;29.80;;;16.87;;
23404;SDS011;11875;49.356;2.718;2023-01-24T03:56:24;27.13;;;16.67;;
23404;SDS011;11875;49.356;2.718;2023-01-24T03:58:50;27.20;;;15.70;;
23404;SDS011;11875;49.356;2.718;2023-01-24T04:01:18;28.67;;;16.63;;
23404;SDS011;11875;49.356;2.718;2023-01-24T04:03:44;28.10;;;15.93;;
23404;SDS011;11875;49.356;2.718;2023-01-24T04:06:10;28.17;;;15.73;;
23404;SDS011;11875;49.356;2.718;2023-01-24T04:08:36;28.53;;;16.43;;
23404;SDS011;11875;49.356;2.718;2023-01-24T04:11:01;28.20;;;16.57;;
23404;SDS011;11875;49.356;2.718;2023-01-24T04:13:27;26.07;;;15.50;;
23404;SDS011;11875;49.356;2.718;2023-01-24T04:15:53;28.67;;;16.53;;
23404;SDS011;11875;49.356;2.718;2023-01-24T04:18:18;27.37;;;16.27;;
23404;SDS011;11875;49.356;2.718;2023-01-24T04:20:44;27.30;;;15.43;;
23404;SDS011;11875;49.356;2.718;2023-01-24T04:23:10;28.37;;;15.53;;
23404;SDS011;11875;49.356;2.718;2023-01-24T04:25:36;30.67;;;17.13;;
23404;SDS011;11875;49.356;2.718;2023-01-24T04:28:02;27.17;;;16.77;;
23404;SDS011;11875;49.356;2.718;2023-01-24T04:30:28;27.17;;;16.17;;
23404;SDS011;11875;49.356;2.718;2023-01-24T04:32:53;27.23;;;16.90;;
23404;SDS011;11875;49.356;2.718;2023-01-24T04:35:20;28.50;;;16.53;;
23404;SDS011;11875;49.356;2.718;2023-01-24T04:37:47;28.80;;;16.17;;
23404;SDS011;11875;49.356;2.718;2023-01-24T04:40:14;26.10;;;14.87;;
23404;SDS011;11875;49.356;2.718;2023-01-24T04:42:40;26.90;;;15.93;;
23404;SDS011;11875;49.356;2.718;2023-01-24T04:45:07;27.17;;;15.93;;
23404;SDS011;11875;49.356;2.718;2023-01-24T04:47:33;39.50;;;16.57;;
23404;SDS011;11875;49.356;2.718;2023-01-24T04:49:59;29.63;;;16.17;;
23404;SDS011;11875;49.356;2.718;2023-01-24T04:52:25;30.37;;;18.10;;
23404;SDS011;11875;49.356;2.718;2023-01-24T04:54:50;26.77;;;14.00;;
23404;SDS011;11875;49.356;2.718;2023-01-24T04:57:19;28.17;;;16.43;;
23404;SDS011;11875;49.356;2.718;2023-01-24T04:59:44;30.60;;;16.83;;
23404;SDS011;11875;49.356;2.718;2023-01-24T05:02:10;31.17;;;16.80;;
23404;SDS011;11875;49.356;2.718;2023-01-24T05:04:36;30.17;;;17.60;;
23404;SDS011;11875;49.356;2.718;2023-01-24T05:07:01;28.07;;;16.87;;
23404;SDS011;11875;49.356;2.718;2023-01-24T05:09:27;28.17;;;15.97;;
23404;SDS011;11875;49.356;2.718;2023-01-24T05:11:53;31.83;;;17.33;;
23404;SDS011;11875;49.356;2.718;2023-01-24T05:14:19;29.20;;;17.30;;
23404;SDS011;11875;49.356;2.718;2023-01-24T05:16:44;29.07;;;16.53;;
23404;SDS011;11875;49.356;2.718;2023-01-24T05:19:10;29.70;;;17.20;;
23404;SDS011;11875;49.356;2.718;2023-01-24T05:21:36;30.90;;;17.10;;
23404;SDS011;11875;49.356;2.718;2023-01-24T05:24:01;29.33;;;16.97;;
23404;SDS011;11875;49.356;2.718;2023-01-24T05:26:28;31.63;;;17.20;;
23404;SDS011;11875;49.356;2.718;2023-01-24T05:28:53;31.00;;;17.40;;
23404;SDS011;11875;49.356;2.718;2023-01-24T05:31:19;31.13;;;18.87;;
23404;SDS011;11875;49.356;2.718;2023-01-24T05:33:45;32.80;;;17.83;;
23404;SDS011;11875;49.356;2.718;2023-01-24T05:36:12;29.83;;;17.67;;
23404;SDS011;11875;49.356;2.718;2023-01-24T05:38:46;32.57;;;17.87;;
23404;SDS011;11875;49.356;2.718;2023-01-24T05:41:12;31.63;;;18.37;;
23404;SDS011;11875;49.356;2.718;2023-01-24T05:43:41;33.80;;;17.83;;
23404;SDS011;11875;49.356;2.718;2023-01-24T05:46:25;36.57;;;17.97;;
23404;SDS011;11875;49.356;2.718;2023-01-24T05:48:53;37.70;;;18.93;;
23404;SDS011;11875;49.356;2.718;2023-01-24T05:51:18;33.23;;;19.23;;
23404;SDS011;11875;49.356;2.718;2023-01-24T05:53:44;34.73;;;18.77;;
23404;SDS011;11875;49.356;2.718;2023-01-24T05:56:14;35.00;;;18.77;;
23404;SDS011;11875;49.356;2.718;2023-01-24T05:58:42;34.80;;;18.47;;
23404;SDS011;11875;49.356;2.718;2023-01-24T06:01:10;33.93;;;19.17;;
23404;SDS011;11875;49.356;2.718;2023-01-24T06:03:38;40.47;;;19.93;;
23404;SDS011;11875;49.356;2.718;2023-01-24T06:06:07;36.73;;;19.70;;
23404;SDS011;11875;49.356;2.718;2023-01-24T06:08:34;35.47;;;19.77;;
23404;SDS011;11875;49.356;2.718;2023-01-24T06:11:07;37.07;;;20.23;;
23404;SDS011;11875;49.356;2.718;2023-01-24T06:13:37;33.53;;;19.27;;
23404;SDS011;11875;49.356;2.718;2023-01-24T06:16:04;34.90;;;20.03;;
23404;SDS011;11875;49.356;2.718;2023-01-24T06:18:31;39.30;;;21.00;;
23404;SDS011;11875;49.356;2.718;2023-01-24T06:20:57;39.57;;;22.27;;
23404;SDS011;11875;49.356;2.718;2023-01-24T06:23:25;36.67;;;19.97;;
23404;SDS011;11875;49.356;2.718;2023-01-24T06:25:52;36.10;;;19.37;;
23404;SDS011;11875;49.356;2.718;2023-01-24T06:28:18;34.73;;;18.00;;
23404;SDS011;11875;49.356;2.718;2023-01-24T06:30:46;30.87;;;18.63;;
23404;SDS011;11875;49.356;2.718;2023-01-24T06:33:43;31.47;;;18.10;;
23404;SDS011;11875;49.356;2.718;2023-01-24T06:39:16;34.47;;;19.23;;
23404;SDS011;11875;49.356;2.718;2023-01-24T06:41:42;35.23;;;18.90;;
23404;SDS011;11875;49.356;2.718;2023-01-24T06:44:09;37.30;;;19.67;;
23404;SDS011;11875;49.356;2.718;2023-01-24T06:46:35;33.23;;;19.33;;
23404;SDS011;11875;49.356;2.718;2023-01-24T06:49:01;33.57;;;18.93;;
23404;SDS011;11875;49.356;2.718;2023-01-24T06:51:27;34.80;;;19.90;;
23404;SDS011;11875;49.356;2.718;2023-01-24T06:53:52;33.10;;;18.10;;
23404;SDS011;11875;49.356;2.718;2023-01-24T06:56:18;39.57;;;20.93;;
23404;SDS011;11875;49.356;2.718;2023-01-24T06:58:44;32.80;;;19.07;;
23404;SDS011;11875;49.356;2.718;2023-01-24T07:01:09;35.23;;;19.80;;
23404;SDS011;11875;49.356;2.718;2023-01-24T07:03:35;33.30;;;19.10;;
23404;SDS011;11875;49.356;2.718;2023-01-24T07:06:01;33.07;;;18.33;;
23404;SDS011;11875;49.356;2.718;2023-01-24T07:08:26;29.60;;;17.70;;
23404;SDS011;11875;49.356;2.718;2023-01-24T07:10:52;35.33;;;18.53;;
23404;SDS011;11875;49.356;2.718;2023-01-24T07:13:18;34.20;;;18.10;;
23404;SDS011;11875;49.356;2.718;2023-01-24T07:15:43;33.30;;;19.03;;
23404;SDS011;11875;49.356;2.718;2023-01-24T07:18:11;32.80;;;19.13;;
23404;SDS011;11875;49.356;2.718;2023-01-24T07:20:38;33.97;;;17.73;;
23404;SDS011;11875;49.356;2.718;2023-01-24T07:23:04;37.80;;;21.00;;
23404;SDS011;11875;49.356;2.718;2023-01-24T07:25:30;28.93;;;16.77;;
23404;SDS011;11875;49.356;2.718;2023-01-24T07:27:57;33.77;;;18.27;;
23404;SDS011;11875;49.356;2.718;2023-01-24T07:30:23;31.97;;;18.03;;
23404;SDS011;11875;49.356;2.718;2023-01-24T07:32:48;33.23;;;17.50;;
23404;SDS011;11875;49.356;2.718;2023-01-24T07:35:14;30.33;;;16.63;;
23404;SDS011;11875;49.356;2.718;2023-01-24T07:37:39;30.70;;;17.47;;
23404;SDS011;11875;49.356;2.718;2023-01-24T07:40:05;33.13;;;19.07;;
23404;SDS011;11875;49.356;2.718;2023-01-24T07:42:31;37.97;;;18.17;;
23404;SDS011;11875;49.356;2.718;2023-01-24T07:44:57;32.73;;;18.27;;
23404;SDS011;11875;49.356;2.718;2023-01-24T07:47:23;30.70;;;17.53;;
23404;SDS011;11875;49.356;2.718;2023-01-24T07:49:51;33.87;;;17.83;;
23404;SDS011;11875;49.356;2.718;2023-01-24T07:52:16;33.10;;;18.70;;
23404;SDS011;11875;49.356;2.718;2023-01-24T07:54:42;35.80;;;19.53;;
23404;SDS011;11875;49.356;2.718;2023-01-24T07:57:08;31.07;;;18.33;;
23404;SDS011;11875;49.356;2.718;2023-01-24T07:59:33;31.00;;;17.93;;
23404;SDS011;11875;49.356;2.718;2023-01-24T08:01:59;33.37;;;18.37;;
23404;SDS011;11875;49.356;2.718;2023-01-24T08:04:24;34.73;;;19.07;;
23404;SDS011;11875;49.356;2.718;2023-01-24T08:06:50;29.77;;;17.23;;
23404;SDS011;11875;49.356;2.718;2023-01-24T08:09:34;31.47;;;17.23;;
23404;SDS011;11875;49.356;2.718;2023-01-24T08:12:00;29.93;;;17.57;;
23404;SDS011;11875;49.356;2.718;2023-01-24T08:14:25;29.67;;;17.47;;
23404;SDS011;11875;49.356;2.718;2023-01-24T08:16:51;29.40;;;16.80;;
23404;SDS011;11875;49.356;2.718;2023-01-24T08:19:16;29.33;;;16.23;;
23404;SDS011;11875;49.356;2.718;2023-01-24T08:21:42;30.50;;;17.40;;
23404;SDS011;11875;49.356;2.718;2023-01-24T08:24:08;30.17;;;16.23;;
23404;SDS011;11875;49.356;2.718;2023-01-24T08:26:33;30.07;;;17.17;;
23404;SDS011;11875;49.356;2.718;2023-01-24T08:28:59;29.67;;;18.07;;
23404;SDS011;11875;49.356;2.718;2023-01-24T08:31:24;30.50;;;17.80;;
23404;SDS011;11875;49.356;2.718;2023-01-24T08:33:50;30.00;;;17.13;;
23404;SDS011;11875;49.356;2.718;2023-01-24T08:36:16;29.97;;;16.73;;
23404;SDS011;11875;49.356;2.718;2023-01-24T08:38:44;29.23;;;15.70;;
23404;SDS011;11875;49.356;2.718;2023-01-24T08:41:10;30.90;;;17.00;;
23404;SDS011;11875;49.356;2.718;2023-01-24T08:43:35;28.83;;;17.53;;
23404;SDS011;11875;49.356;2.718;2023-01-24T08:46:01;29.13;;;16.87;;
23404;SDS011;11875;49.356;2.718;2023-01-24T08:48:27;31.70;;;17.50;;
23404;SDS011;11875;49.356;2.718;2023-01-24T08:50:53;28.03;;;17.13;;
23404;SDS011;11875;49.356;2.718;2023-01-24T08:53:19;32.77;;;18.50;;
23404;SDS011;11875;49.356;2.718;2023-01-24T08:55:47;34.50;;;17.47;;
23404;SDS011;11875;49.356;2.718;2023-01-24T08:58:16;35.57;;;19.10;;
23404;SDS011;11875;49.356;2.718;2023-01-24T09:00:42;31.07;;;17.93;;
23404;SDS011;11875;49.356;2.718;2023-01-24T09:03:08;32.17;;;17.70;;
23404;SDS011;11875;49.356;2.718;2023-01-24T09:05:36;29.57;;;17.13;;
23404;SDS011;11875;49.356;2.718;2023-01-24T09:08:03;34.40;;;18.73;;
23404;SDS011;11875;49.356;2.718;2023-01-24T09:10:29;32.40;;;17.77;;
23404;SDS011;11875;49.356;2.718;2023-01-24T09:12:55;35.63;;;19.30;;
23404;SDS011;11875;49.356;2.718;2023-01-24T09:15:20;32.47;;;18.97;;
23404;SDS011;11875;49.356;2.718;2023-01-24T09:17:46;27.83;;;15.73;;
23404;SDS011;11875;49.356;2.718;2023-01-24T09:20:12;33.83;;;18.00;;
23404;SDS011;11875;49.356;2.718;2023-01-24T09:22:37;33.50;;;18.37;;
23404;SDS011;11875;49.356;2.718;2023-01-24T09:25:04;32.10;;;17.37;;
23404;SDS011;11875;49.356;2.718;2023-01-24T09:27:32;28.40;;;17.07;;
23404;SDS011;11875;49.356;2.718;2023-01-24T09:29:58;38.10;;;19.40;;
23404;SDS011;11875;49.356;2.718;2023-01-24T09:32:24;31.90;;;18.03;;
23404;SDS011;11875;49.356;2.718;2023-01-24T09:34:49;35.77;;;18.33;;
23404;SDS011;11875;49.356;2.718;2023-01-24T09:37:18;30.60;;;17.27;;
23404;SDS011;11875;49.356;2.718;2023-01-24T09:39:45;34.43;;;18.50;;
23404;SDS011;11875;49.356;2.718;2023-01-24T09:45:14;33.00;;;18.50;;
23404;SDS011;11875;49.356;2.718;2023-01-24T09:50:20;32.10;;;19.10;;
23404;SDS011;11875;49.356;2.718;2023-01-24T09:52:53;37.07;;;19.77;;
23404;SDS011;11875;49.356;2.718;2023-01-24T09:58:00;34.87;;;18.97;;
23404;SDS011;11875;49.356;2.718;2023-01-24T10:01:08;34.37;;;18.40;;
23404;SDS011;11875;49.356;2.718;2023-01-24T10:03:38;36.27;;;18.43;;
23404;SDS011;11875;49.356;2.718;2023-01-24T10:06:10;33.30;;;19.37;;
23404;SDS011;11875;49.356;2.718;2023-01-24T10:09:17;33.20;;;18.90;;
23404;SDS011;11875;49.356;2.718;2023-01-24T10:17:25;33.50;;;18.27;;
23404;SDS011;11875;49.356;2.718;2023-01-24T10:25:17;30.10;;;18.53;;
23404;SDS011;11875;49.356;2.718;2023-01-24T10:27:48;34.03;;;18.63;;
23404;SDS011;11875;49.356;2.718;2023-01-24T10:32:47;32.90;;;18.30;;
23404;SDS011;11875;49.356;2.718;2023-01-24T10:35:19;32.93;;;19.23;;
23404;SDS011;11875;49.356;2.718;2023-01-24T10:37:49;37.33;;;19.10;;
23404;SDS011;11875;49.356;2.718;2023-01-24T10:40:21;33.90;;;18.87;;
23404;SDS011;11875;49.356;2.718;2023-01-24T10:42:49;30.73;;;17.50;;
23404;SDS011;11875;49.356;2.718;2023-01-24T10:51:10;35.37;;;18.37;;
23404;SDS011;11875;49.356;2.718;2023-01-24T10:53:39;32.77;;;18.93;;
23404;SDS011;11875;49.356;2.718;2023-01-24T10:56:04;33.43;;;19.43;;
23404;SDS011;11875;49.356;2.718;2023-01-24T11:01:51;36.67;;;20.83;;
23404;SDS011;11875;49.356;2.718;2023-01-24T11:03:59;35.47;;;19.93;;
23404;SDS011;11875;49.356;2.718;2023-01-24T11:06:39;32.50;;;18.50;;
23404;SDS011;11875;49.356;2.718;2023-01-24T11:11:39;32.90;;;18.23;;
23404;SDS011;11875;49.356;2.718;2023-01-24T11:14:17;34.80;;;18.27;;
23404;SDS011;11875;49.356;2.718;2023-01-24T11:16:50;31.00;;;16.03;;
23404;SDS011;11875;49.356;2.718;2023-01-24T11:19:20;35.07;;;17.50;;
23404;SDS011;11875;49.356;2.718;2023-01-24T11:21:51;29.33;;;16.00;;
23404;SDS011;11875;49.356;2.718;2023-01-24T11:24:18;33.87;;;17.90;;
23404;SDS011;11875;49.356;2.718;2023-01-24T11:26:52;27.10;;;15.23;;
23404;SDS011;11875;49.356;2.718;2023-01-24T11:29:21;28.67;;;16.00;;
23404;SDS011;11875;49.356;2.718;2023-01-24T11:31:54;31.63;;;17.23;;
23404;SDS011;11875;49.356;2.718;2023-01-24T11:39:46;26.27;;;15.73;;
23404;SDS011;11875;49.356;2.718;2023-01-24T11:42:31;28.93;;;17.27;;
23404;SDS011;11875;49.356;2.718;2023-01-24T11:57:00;28.70;;;16.30;;
23404;SDS011;11875;49.356;2.718;2023-01-24T12:12:49;28.90;;;16.27;;
23404;SDS011;11875;49.356;2.718;2023-01-24T12:15:44;31.70;;;16.83;;
23404;SDS011;11875;49.356;2.718;2023-01-24T12:21:36;34.57;;;18.27;;
23404;SDS011;11875;49.356;2.718;2023-01-24T12:24:02;30.97;;;16.67;;
23404;SDS011;11875;49.356;2.718;2023-01-24T12:26:44;29.73;;;16.20;;
23404;SDS011;11875;49.356;2.718;2023-01-24T12:29:20;32.17;;;16.97;;
23404;SDS011;11875;49.356;2.718;2023-01-24T12:32:14;29.37;;;17.47;;
23404;SDS011;11875;49.356;2.718;2023-01-24T12:34:47;31.83;;;17.87;;
23404;SDS011;11875;49.356;2.718;2023-01-24T12:46:01;29.50;;;16.87;;
23404;SDS011;11875;49.356;2.718;2023-01-24T12:54:04;35.63;;;19.30;;
23404;SDS011;11875;49.356;2.718;2023-01-24T12:57:31;32.50;;;18.33;;
23404;SDS011;11875;49.356;2.718;2023-01-24T12:59:52;35.77;;;17.70;;
23404;SDS011;11875;49.356;2.718;2023-01-24T13:05:44;28.70;;;16.70;;
23404;SDS011;11875;49.356;2.718;2023-01-24T13:08:20;33.77;;;17.37;;
23404;SDS011;11875;49.356;2.718;2023-01-24T13:13:35;30.57;;;17.70;;
23404;SDS011;11875;49.356;2.718;2023-01-24T13:21:45;28.83;;;16.17;;
23404;SDS011;11875;49.356;2.718;2023-01-24T13:27:41;30.03;;;16.70;;
23404;SDS011;11875;49.356;2.718;2023-01-24T13:30:24;27.73;;;16.07;;
23404;SDS011;11875;49.356;2.718;2023-01-24T13:32:53;31.00;;;17.50;;
23404;SDS011;11875;49.356;2.718;2023-01-24T13:35:22;29.70;;;16.00;;
23404;SDS011;11875;49.356;2.718;2023-01-24T13:37:54;28.17;;;14.53;;
23404;SDS011;11875;49.356;2.718;2023-01-24T13:40:24;25.90;;;15.13;;
23404;SDS011;11875;49.356;2.718;2023-01-24T13:42:55;26.63;;;15.37;;
23404;SDS011;11875;49.356;2.718;2023-01-24T13:47:48;25.07;;;15.53;;
23404;SDS011;11875;49.356;2.718;2023-01-24T13:50:18;26.80;;;14.87;;
23404;SDS011;11875;49.356;2.718;2023-01-24T13:52:44;27.37;;;15.33;;
23404;SDS011;11875;49.356;2.718;2023-01-24T13:57:47;26.53;;;15.40;;
23404;SDS011;11875;49.356;2.718;2023-01-24T14:00:52;25.87;;;15.50;;
23404;SDS011;11875;49.356;2.718;2023-01-24T14:03:29;26.37;;;16.07;;
23404;SDS011;11875;49.356;2.718;2023-01-24T14:21:25;28.80;;;15.67;;
23404;SDS011;11875;49.356;2.718;2023-01-24T14:23:56;27.60;;;16.03;;
23404;SDS011;11875;49.356;2.718;2023-01-24T14:26:26;25.60;;;15.67;;
23404;SDS011;11875;49.356;2.718;2023-01-24T14:28:59;25.20;;;14.87;;
23404;SDS011;11875;49.356;2.718;2023-01-24T14:31:29;26.00;;;14.10;;
23404;SDS011;11875;49.356;2.718;2023-01-24T14:34:17;24.43;;;14.43;;
23404;SDS011;11875;49.356;2.718;2023-01-24T14:36:45;27.03;;;14.00;;
23404;SDS011;11875;49.356;2.718;2023-01-24T14:39:25;26.30;;;14.83;;
23404;SDS011;11875;49.356;2.718;2023-01-24T14:41:52;27.43;;;14.80;;
23404;SDS011;11875;49.356;2.718;2023-01-24T14:44:31;27.97;;;15.13;;
23404;SDS011;11875;49.356;2.718;2023-01-24T14:47:02;27.03;;;14.33;;
23404;SDS011;11875;49.356;2.718;2023-01-24T14:49:34;26.60;;;15.17;;
23404;SDS011;11875;49.356;2.718;2023-01-24T14:52:20;23.37;;;13.47;;
23404;SDS011;11875;49.356;2.718;2023-01-24T14:54:52;32.53;;;15.87;;
23404;SDS011;11875;49.356;2.718;2023-01-24T14:59:45;31.23;;;16.93;;
23404;SDS011;11875;49.356;2.718;2023-01-24T15:02:15;28.30;;;16.03;;
23404;SDS011;11875;49.356;2.718;2023-01-24T15:04:44;26.27;;;15.77;;
23404;SDS011;11875;49.356;2.718;2023-01-24T15:07:11;28.03;;;15.67;;
23404;SDS011;11875;49.356;2.718;2023-01-24T15:09:39;32.87;;;17.70;;
23404;SDS011;11875;49.356;2.718;2023-01-24T15:12:12;35.67;;;18.30;;
23404;SDS011;11875;49.356;2.718;2023-01-24T15:14:44;34.00;;;17.40;;
23404;SDS011;11875;49.356;2.718;2023-01-24T15:17:17;41.00;;;18.07;;
23404;SDS011;11875;49.356;2.718;2023-01-24T15:19:47;30.47;;;16.73;;
23404;SDS011;11875;49.356;2.718;2023-01-24T15:22:18;31.70;;;17.53;;
23404;SDS011;11875;49.356;2.718;2023-01-24T15:24:55;34.97;;;18.70;;
23404;SDS011;11875;49.356;2.718;2023-01-24T15:40:36;35.43;;;19.60;;
23404;SDS011;11875;49.356;2.718;2023-01-24T15:43:30;35.43;;;19.23;;
23404;SDS011;11875;49.356;2.718;2023-01-24T15:51:57;35.27;;;19.77;;
23404;SDS011;11875;49.356;2.718;2023-01-24T15:54:33;37.50;;;19.50;;
23404;SDS011;11875;49.356;2.718;2023-01-24T15:57:00;39.17;;;20.40;;
23404;SDS011;11875;49.356;2.718;2023-01-24T15:59:29;36.13;;;19.40;;
23404;SDS011;11875;49.356;2.718;2023-01-24T16:01:57;37.90;;;20.60;;
23404;SDS011;11875;49.356;2.718;2023-01-24T16:04:24;32.10;;;18.73;;
23404;SDS011;11875;49.356;2.718;2023-01-24T16:06:50;42.83;;;20.37;;
23404;SDS011;11875;49.356;2.718;2023-01-24T16:09:16;37.90;;;19.83;;
23404;SDS011;11875;49.356;2.718;2023-01-24T16:11:43;31.60;;;18.77;;
23404;SDS011;11875;49.356;2.718;2023-01-24T16:14:20;35.77;;;19.03;;
23404;SDS011;11875;49.356;2.718;2023-01-24T16:16:48;34.27;;;18.93;;
23404;SDS011;11875;49.356;2.718;2023-01-24T16:19:19;33.10;;;19.73;;
23404;SDS011;11875;49.356;2.718;2023-01-24T16:21:46;36.27;;;21.20;;
23404;SDS011;11875;49.356;2.718;2023-01-24T16:24:12;35.17;;;19.50;;
23404;SDS011;11875;49.356;2.718;2023-01-24T16:26:39;35.10;;;19.93;;
23404;SDS011;11875;49.356;2.718;2023-01-24T16:29:18;40.20;;;21.13;;
23404;SDS011;11875;49.356;2.718;2023-01-24T16:31:46;36.30;;;18.67;;
23404;SDS011;11875;49.356;2.718;2023-01-24T16:34:12;33.87;;;18.33;;
23404;SDS011;11875;49.356;2.718;2023-01-24T16:36:38;35.70;;;20.07;;
23404;SDS011;11875;49.356;2.718;2023-01-24T16:39:04;33.73;;;18.40;;
23404;SDS011;11875;49.356;2.718;2023-01-24T16:41:30;34.80;;;20.03;;
23404;SDS011;11875;49.356;2.718;2023-01-24T16:43:56;32.13;;;18.33;;
23404;SDS011;11875;49.356;2.718;2023-01-24T16:46:22;34.93;;;20.17;;
23404;SDS011;11875;49.356;2.718;2023-01-24T16:48:48;33.10;;;17.73;;
23404;SDS011;11875;49.356;2.718;2023-01-24T16:51:15;32.30;;;18.33;;
23404;SDS011;11875;49.356;2.718;2023-01-24T16:53:41;37.23;;;19.13;;
23404;SDS011;11875;49.356;2.718;2023-01-24T16:56:07;35.43;;;18.63;;
23404;SDS011;11875;49.356;2.718;2023-01-24T16:58:34;31.30;;;18.27;;
23404;SDS011;11875;49.356;2.718;2023-01-24T17:01:06;34.40;;;18.27;;
23404;SDS011;11875;49.356;2.718;2023-01-24T17:03:33;31.37;;;16.57;;